Time;durP1;ratioP1;P1;durP2;ratioP2;P2;SDS_P1;SDS_P2;PMS_P1;PMS_P2;Temp;Humidity;BMP_temperature;BMP_pressure;BME280_temperature;BME280_humidity;BME280_pressure;Samples;Min_cycle;Max_cycle;Signal;HPM_P1;HPM_P2
2021/11/18 00:00:13;;;;;;;78.97;33.10;;;2.90;99.90;;;;;;5111242;28;20595;-77
2021/11/18 00:02:40;;;;;;;73.93;32.97;;;2.90;99.90;;;;;;5113323;27;20246;-76
2021/11/18 00:05:12;;;;;;;54.53;31.80;;;2.80;99.90;;;;;;5112894;28;20315;-76
2021/11/18 00:07:42;;;;;;;51.90;30.50;;;2.80;99.90;;;;;;5112967;28;20232;-76
2021/11/18 00:10:10;;;;;;;54.63;31.33;;;2.70;99.90;;;;;;5113478;28;20211;-76
2021/11/18 00:12:37;;;;;;;51.83;29.43;;;2.70;99.90;;;;;;5112866;28;20287;-77
2021/11/18 00:15:07;;;;;;;57.87;26.43;;;2.60;99.90;;;;;;5091845;28;20307;-77
2021/11/18 00:17:34;;;;;;;45.20;24.53;;;2.70;99.90;;;;;;5109351;28;20291;-77
2021/11/18 00:20:01;;;;;;;46.53;22.20;;;2.60;99.90;;;;;;5112636;27;20231;-76
2021/11/18 00:22:28;;;;;;;39.37;22.80;;;2.60;99.90;;;;;;5112842;27;20312;-77
2021/11/18 00:24:55;;;;;;;47.70;23.73;;;2.40;99.90;;;;;;5112190;28;20760;-76
2021/11/18 00:27:22;;;;;;;35.47;21.80;;;2.30;99.90;;;;;;5112185;28;20251;-77
2021/11/18 00:29:49;;;;;;;36.77;21.23;;;2.20;99.90;;;;;;5112362;28;20716;-76
2021/11/18 00:32:17;;;;;;;30.67;20.17;;;2.10;99.90;;;;;;5115534;27;20232;-77
2021/11/18 00:34:44;;;;;;;29.57;19.93;;;2.00;99.90;;;;;;5112114;28;20239;-77
2021/11/18 00:37:12;;;;;;;28.73;18.37;;;2.00;99.90;;;;;;5112718;28;20200;-76
2021/11/18 00:39:39;;;;;;;27.13;17.43;;;2.10;99.90;;;;;;5121828;27;20644;-77
2021/11/18 00:42:06;;;;;;;28.93;18.07;;;2.10;99.90;;;;;;5112760;28;20239;-76
2021/11/18 00:44:33;;;;;;;23.33;16.20;;;2.00;99.90;;;;;;5113137;27;20289;-76
2021/11/18 00:47:00;;;;;;;103.77;56.33;;;2.10;99.90;;;;;;5112170;28;20233;-76
2021/11/18 00:49:28;;;;;;;80.37;45.43;;;1.90;99.90;;;;;;5114687;27;20283;-76
2021/11/18 00:51:55;;;;;;;31.97;14.33;;;2.00;99.90;;;;;;5111758;28;20231;-76
2021/11/18 00:54:22;;;;;;;29.13;12.43;;;1.90;99.90;;;;;;5112466;28;20283;-76
2021/11/18 00:56:49;;;;;;;17.23;10.27;;;2.00;99.90;;;;;;5112415;28;20653;-76
2021/11/18 00:59:16;;;;;;;17.37;11.07;;;2.00;99.90;;;;;;5112755;28;20239;-77
2021/11/18 01:01:45;;;;;;;25.93;15.67;;;2.00;99.90;;;;;;5110996;28;20299;-76
2021/11/18 01:04:14;;;;;;;23.07;14.13;;;1.90;99.90;;;;;;5113963;27;20229;-77
2021/11/18 01:06:43;;;;;;;19.47;12.53;;;2.10;99.90;;;;;;5119919;27;20288;-77
2021/11/18 01:09:11;;;;;;;20.73;13.17;;;2.20;99.90;;;;;;5112508;28;20688;-76
2021/11/18 01:11:38;;;;;;;30.20;13.57;;;2.10;99.90;;;;;;5114227;27;20239;-77
2021/11/18 01:14:07;;;;;;;39.50;16.70;;;2.20;99.90;;;;;;5111757;28;20300;-76
2021/11/18 01:16:37;;;;;;;25.57;14.17;;;2.30;99.90;;;;;;5111917;28;20252;-76
2021/11/18 01:19:05;;;;;;;27.30;14.30;;;2.30;99.90;;;;;;5111634;28;20311;-77
2021/11/18 01:21:32;;;;;;;28.40;13.20;;;2.30;99.90;;;;;;5111395;28;20254;-76
2021/11/18 01:24:00;;;;;;;25.70;13.33;;;2.30;99.90;;;;;;5111450;28;20931;-76
2021/11/18 01:26:27;;;;;;;19.30;13.17;;;2.30;99.90;;;;;;5117691;28;20235;-76
2021/11/18 01:28:54;;;;;;;19.17;13.50;;;2.30;99.90;;;;;;5098576;28;20292;-76
2021/11/18 01:31:22;;;;;;;19.20;12.63;;;2.30;99.90;;;;;;5106324;27;20287;-76
2021/11/18 01:33:49;;;;;;;20.53;13.03;;;2.30;99.90;;;;;;5118458;28;20223;-77
2021/11/18 01:36:16;;;;;;;31.70;14.30;;;2.30;99.90;;;;;;5127901;27;20625;-76
2021/11/18 01:38:43;;;;;;;25.83;14.23;;;2.30;99.90;;;;;;5125641;27;20202;-76
2021/11/18 01:41:16;;;;;;;37.97;19.77;;;2.20;99.90;;;;;;5120579;27;20311;-76
2021/11/18 01:43:46;;;;;;;39.30;18.30;;;2.20;99.90;;;;;;5119517;27;20227;-77
2021/11/18 01:46:17;;;;;;;34.90;17.57;;;2.10;99.90;;;;;;5139064;27;20290;-77
2021/11/18 01:48:46;;;;;;;62.40;25.47;;;2.10;99.90;;;;;;5119665;27;20289;-76
2021/11/18 01:51:13;;;;;;;50.37;22.57;;;2.00;99.90;;;;;;5117903;28;20249;-77
2021/11/18 01:53:43;;;;;;;50.67;23.90;;;1.90;99.90;;;;;;5128114;27;20287;-76
2021/11/18 01:56:13;;;;;;;42.30;20.40;;;1.80;99.90;;;;;;5118682;27;20238;-77
2021/11/18 01:58:41;;;;;;;23.73;15.07;;;1.80;99.90;;;;;;5135821;27;20615;-76
2021/11/18 02:01:10;;;;;;;25.60;14.30;;;1.90;99.90;;;;;;5130060;27;20293;-76
2021/11/18 02:03:38;;;;;;;18.63;13.53;;;1.90;99.90;;;;;;5121713;27;20291;-76
2021/11/18 02:06:09;;;;;;;32.13;16.73;;;1.90;99.90;;;;;;5117899;27;20234;-76
2021/11/18 02:08:37;;;;;;;40.20;19.77;;;1.90;99.90;;;;;;5133006;27;20288;-77
2021/11/18 02:11:08;;;;;;;40.47;21.03;;;1.90;99.90;;;;;;5128406;27;20286;-76
2021/11/18 02:13:36;;;;;;;39.27;21.47;;;1.90;99.90;;;;;;5117765;28;20203;-76
2021/11/18 02:16:12;;;;;;;38.17;18.47;;;1.80;99.90;;;;;;5118178;28;20231;-76
2021/11/18 02:18:39;;;;;;;72.33;25.57;;;1.80;99.90;;;;;;5097999;28;21028;-76
2021/11/18 02:21:10;;;;;;;68.07;26.90;;;1.80;99.90;;;;;;5097955;28;20239;-77
2021/11/18 02:23:41;;;;;;;63.47;27.70;;;1.80;99.90;;;;;;5104161;27;20729;-76
2021/11/18 02:26:08;;;;;;;52.50;26.27;;;1.70;99.90;;;;;;5129108;27;20279;-76
2021/11/18 02:28:41;;;;;;;57.73;25.57;;;1.70;99.90;;;;;;5122879;27;20303;-76
2021/11/18 02:31:24;;;;;;;54.73;23.97;;;1.80;99.90;;;;;;5117517;27;20292;-76
2021/11/18 02:33:52;;;;;;;42.13;21.60;;;1.80;99.90;;;;;;5118758;27;20243;-76
2021/11/18 02:36:22;;;;;;;39.30;20.13;;;1.80;99.90;;;;;;5118562;27;20769;-76
2021/11/18 02:38:49;;;;;;;38.47;19.77;;;1.80;99.90;;;;;;5114378;28;20683;-76
2021/11/18 02:41:18;;;;;;;37.97;18.30;;;1.80;99.90;;;;;;5119000;27;20285;-76
2021/11/18 02:43:46;;;;;;;29.83;17.80;;;1.70;99.90;;;;;;5114814;28;20728;-76
2021/11/18 02:46:14;;;;;;;31.10;18.50;;;1.80;99.90;;;;;;5114203;28;20290;-76
2021/11/18 02:48:41;;;;;;;35.23;20.73;;;1.80;99.90;;;;;;5112919;28;20283;-77
2021/11/18 02:51:10;;;;;;;73.67;23.53;;;1.70;99.90;;;;;;5114687;28;20242;-77
2021/11/18 02:53:40;;;;;;;51.70;21.80;;;1.70;99.90;;;;;;5114450;28;20282;-76
2021/11/18 02:56:08;;;;;;;43.67;21.23;;;1.50;99.90;;;;;;5119067;27;20288;-76
2021/11/18 02:58:35;;;;;;;37.27;19.47;;;1.50;99.90;;;;;;5116259;27;20283;-77
2021/11/18 03:01:07;;;;;;;34.37;18.40;;;1.40;99.90;;;;;;5114650;28;20294;-76
2021/11/18 03:03:34;;;;;;;31.73;17.47;;;1.50;99.90;;;;;;5113803;28;20265;-76
2021/11/18 03:06:01;;;;;;;31.93;16.80;;;1.50;99.90;;;;;;5120624;27;20282;-76
2021/11/18 03:08:28;;;;;;;28.60;14.13;;;1.50;99.90;;;;;;5113834;28;20367;-76
2021/11/18 03:10:57;;;;;;;23.80;13.10;;;1.50;99.90;;;;;;5113708;28;20207;-77
2021/11/18 03:13:26;;;;;;;21.40;13.63;;;1.50;99.90;;;;;;5106873;28;20242;-76
2021/11/18 03:15:53;;;;;;;26.63;13.90;;;1.60;99.90;;;;;;5113349;28;20283;-76
2021/11/18 03:18:22;;;;;;;28.43;15.43;;;1.60;99.90;;;;;;5114114;28;20741;-76
2021/11/18 03:20:49;;;;;;;34.90;16.77;;;1.60;99.90;;;;;;5114027;28;20653;-76
2021/11/18 03:23:16;;;;;;;80.80;20.90;;;1.50;99.90;;;;;;5113143;28;20251;-76
2021/11/18 03:25:43;;;;;;;53.27;22.60;;;1.40;99.90;;;;;;5114053;28;20283;-76
2021/11/18 03:28:12;;;;;;;40.03;20.93;;;1.30;99.90;;;;;;5113636;27;20286;-76
2021/11/18 03:30:42;;;;;;;96.97;54.23;;;1.30;99.90;;;;;;5114290;28;20229;-76
2021/11/18 03:33:12;;;;;;;57.53;29.10;;;1.30;99.90;;;;;;5114125;27;20277;-76
2021/11/18 03:35:39;;;;;;;38.77;20.97;;;1.30;99.90;;;;;;5120308;27;20277;-76
2021/11/18 03:38:08;;;;;;;52.50;23.60;;;1.30;99.90;;;;;;5115192;27;20651;-77
2021/11/18 03:40:35;;;;;;;38.43;20.63;;;1.30;99.90;;;;;;5114025;27;20286;-77
2021/11/18 03:43:01;;;;;;;63.90;28.00;;;1.30;99.90;;;;;;5112953;28;20342;-76
2021/11/18 03:45:32;;;;;;;37.80;19.97;;;1.30;99.90;;;;;;5113666;28;20625;-76
2021/11/18 03:47:59;;;;;;;41.40;19.70;;;1.30;99.90;;;;;;5098963;28;20200;-76
2021/11/18 03:50:27;;;;;;;27.67;15.90;;;1.30;99.90;;;;;;5113145;27;20305;-76
2021/11/18 03:52:54;;;;;;;35.37;19.10;;;1.30;99.90;;;;;;5117488;27;20282;-76
2021/11/18 03:55:22;;;;;;;36.37;18.27;;;1.30;99.90;;;;;;5114160;27;20313;-76
2021/11/18 03:57:49;;;;;;;41.40;20.83;;;1.30;99.90;;;;;;5112929;28;20619;-76
2021/11/18 04:00:20;;;;;;;64.23;28.77;;;1.30;99.90;;;;;;5113168;28;20246;-76
2021/11/18 04:02:48;;;;;;;99.93;37.83;;;1.40;99.90;;;;;;5110238;28;20576;-77
2021/11/18 04:05:15;;;;;;;89.47;36.83;;;1.30;99.90;;;;;;5112584;27;20281;-76
2021/11/18 04:07:43;;;;;;;110.20;36.53;;;1.30;99.90;;;;;;5111457;27;20290;-76
2021/11/18 04:10:12;;;;;;;72.13;32.47;;;1.30;99.90;;;;;;5126215;27;20225;-77
2021/11/18 04:12:40;;;;;;;80.67;35.70;;;1.30;99.90;;;;;;5120982;27;20269;-77
2021/11/18 04:15:09;;;;;;;59.27;29.93;;;1.20;99.90;;;;;;5112787;28;20239;-77
2021/11/18 04:17:35;;;;;;;59.30;28.33;;;1.40;99.90;;;;;;5112914;28;20231;-76
2021/11/18 04:20:07;;;;;;;62.40;30.00;;;1.40;99.90;;;;;;5120436;27;20811;-76
2021/11/18 04:22:34;;;;;;;57.17;27.23;;;1.40;99.90;;;;;;5130015;27;20276;-76
2021/11/18 04:25:01;;;;;;;56.23;27.60;;;1.30;99.90;;;;;;5112851;28;20290;-76
2021/11/18 04:27:28;;;;;;;90.60;38.10;;;1.20;99.90;;;;;;5112061;28;20294;-76
2021/11/18 04:29:55;;;;;;;67.40;33.40;;;1.30;99.90;;;;;;5112502;28;20607;-76
2021/11/18 04:32:25;;;;;;;77.03;32.30;;;1.30;99.90;;;;;;5112878;27;20286;-76
2021/11/18 04:34:52;;;;;;;74.77;31.63;;;1.30;99.90;;;;;;5112857;28;20289;-76
2021/11/18 04:37:21;;;;;;;76.60;34.27;;;1.20;99.90;;;;;;5112459;28;20288;-76
2021/11/18 04:39:49;;;;;;;160.30;61.10;;;1.20;99.90;;;;;;5113042;28;20255;-77
2021/11/18 04:42:18;;;;;;;215.20;85.10;;;1.20;99.90;;;;;;5111855;28;20300;-76
2021/11/18 04:44:45;;;;;;;174.97;75.07;;;1.20;99.90;;;;;;5129583;27;20640;-76
2021/11/18 04:47:13;;;;;;;164.10;61.27;;;1.10;99.90;;;;;;5114711;27;20284;-76
2021/11/18 04:49:42;;;;;;;158.90;61.83;;;1.20;99.90;;;;;;5112717;28;20225;-76
2021/11/18 04:52:10;;;;;;;132.73;47.93;;;1.20;99.90;;;;;;5111969;28;20199;-76
2021/11/18 04:54:38;;;;;;;117.40;42.37;;;1.10;99.90;;;;;;5111724;28;20644;-77
2021/11/18 04:57:06;;;;;;;104.77;41.90;;;1.10;99.90;;;;;;5112392;28;20254;-77
2021/11/18 04:59:33;;;;;;;139.57;54.83;;;1.20;99.90;;;;;;5111418;28;20280;-76
2021/11/18 05:02:00;;;;;;;145.33;57.43;;;1.10;99.90;;;;;;5111792;28;20201;-76
2021/11/18 05:04:27;;;;;;;154.93;58.50;;;1.10;99.90;;;;;;5111815;28;20287;-77
2021/11/18 05:06:54;;;;;;;160.90;56.03;;;1.00;99.90;;;;;;5115714;27;20840;-77
2021/11/18 05:09:21;;;;;;;123.30;50.10;;;1.10;99.90;;;;;;5112030;27;20226;-76
2021/11/18 05:11:50;;;;;;;106.27;46.37;;;1.00;99.90;;;;;;5111943;27;20303;-76
2021/11/18 05:14:16;;;;;;;107.23;46.77;;;1.10;99.90;;;;;;5112137;28;20310;-76
2021/11/18 05:16:44;;;;;;;98.83;40.33;;;1.00;99.90;;;;;;5112329;28;20246;-76
2021/11/18 05:19:10;;;;;;;67.57;30.57;;;1.10;99.90;;;;;;5112790;28;20310;-77
2021/11/18 05:21:41;;;;;;;41.90;21.17;;;1.00;99.90;;;;;;5119945;27;20241;-76
2021/11/18 05:24:08;;;;;;;35.07;16.50;;;1.10;99.90;;;;;;5111894;28;20223;-77
2021/11/18 05:26:36;;;;;;;23.73;13.40;;;1.00;99.90;;;;;;5111832;28;20698;-77
2021/11/18 05:29:05;;;;;;;26.40;13.73;;;1.00;99.90;;;;;;5112006;28;20299;-76
2021/11/18 05:31:32;;;;;;;27.70;14.00;;;1.10;99.90;;;;;;5112375;28;20233;-76
2021/11/18 05:34:00;;;;;;;34.50;14.40;;;1.00;99.90;;;;;;5111483;28;20194;-77
2021/11/18 05:36:27;;;;;;;20.47;11.73;;;1.00;99.90;;;;;;5111974;28;20223;-77
2021/11/18 05:38:54;;;;;;;25.13;11.17;;;1.00;99.90;;;;;;5110220;28;20309;-77
2021/11/18 05:41:22;;;;;;;16.10;10.70;;;1.00;99.90;;;;;;5111554;28;20225;-76
2021/11/18 05:43:49;;;;;;;16.03;10.47;;;1.00;99.90;;;;;;5111692;28;20217;-76
2021/11/18 05:46:20;;;;;;;19.17;9.77;;;1.00;99.90;;;;;;5112166;28;20294;-76
2021/11/18 05:48:47;;;;;;;19.50;9.97;;;1.00;99.90;;;;;;5111767;28;20285;-76
2021/11/18 05:51:16;;;;;;;19.40;10.10;;;1.00;99.90;;;;;;5111930;28;20748;-76
2021/11/18 05:53:45;;;;;;;19.80;10.23;;;1.00;99.90;;;;;;5120999;28;20763;-76
2021/11/18 05:56:16;;;;;;;22.97;11.67;;;1.00;99.90;;;;;;5111569;28;20236;-77
2021/11/18 05:58:46;;;;;;;23.23;11.37;;;1.10;99.90;;;;;;5111599;28;20248;-78
2021/11/18 06:01:14;;;;;;;17.90;10.60;;;1.00;99.90;;;;;;5111542;28;20204;-76
2021/11/18 06:03:43;;;;;;;16.87;11.03;;;0.90;99.90;;;;;;5120047;28;20250;-76
2021/11/18 06:06:10;;;;;;;14.70;9.90;;;0.90;99.90;;;;;;5106528;28;20327;-78
2021/11/18 06:08:37;;;;;;;15.23;10.53;;;0.90;99.90;;;;;;5111052;28;20217;-79
2021/11/18 06:11:05;;;;;;;14.13;9.80;;;0.90;99.90;;;;;;5110346;28;20285;-79
2021/11/18 06:13:34;;;;;;;15.60;10.00;;;0.90;99.90;;;;;;5114259;27;20633;-80
2021/11/18 06:16:01;;;;;;;12.93;8.90;;;0.80;99.90;;;;;;5117131;27;20291;-81
2021/11/18 06:18:28;;;;;;;15.60;9.97;;;0.80;99.90;;;;;;5115131;28;20265;-80
2021/11/18 06:20:56;;;;;;;15.27;10.50;;;0.80;99.90;;;;;;5114570;28;20230;-78
2021/11/18 06:23:24;;;;;;;15.77;10.67;;;0.70;99.90;;;;;;5115067;27;20772;-81
2021/11/18 06:25:51;;;;;;;20.40;11.10;;;0.70;99.90;;;;;;5115177;28;20211;-80
2021/11/18 06:28:19;;;;;;;16.07;10.93;;;0.60;99.90;;;;;;5114134;28;20245;-80
2021/11/18 06:30:49;;;;;;;17.13;10.97;;;0.70;99.90;;;;;;5114519;27;20286;-80
2021/11/18 06:33:17;;;;;;;15.67;10.60;;;0.60;99.90;;;;;;5110101;27;20638;-80
2021/11/18 06:35:44;;;;;;;18.03;11.43;;;0.60;99.90;;;;;;5114127;27;20277;-79
2021/11/18 06:38:12;;;;;;;17.77;11.10;;;0.50;99.90;;;;;;5106151;27;20743;-80
2021/11/18 06:40:39;;;;;;;20.43;12.07;;;0.60;99.90;;;;;;5112637;27;20285;-78
2021/11/18 06:43:07;;;;;;;18.77;12.40;;;0.60;99.90;;;;;;5114711;27;20341;-78
2021/11/18 06:45:36;;;;;;;21.13;13.10;;;0.60;99.90;;;;;;5113875;28;20198;-78
2021/11/18 06:48:03;;;;;;;22.17;13.53;;;0.60;99.90;;;;;;5117090;27;20228;-80
2021/11/18 06:50:31;;;;;;;19.63;13.70;;;0.60;99.90;;;;;;5114457;28;20196;-78
2021/11/18 06:52:58;;;;;;;18.20;12.20;;;0.60;99.90;;;;;;5111912;28;20225;-78
2021/11/18 06:55:27;;;;;;;15.47;11.47;;;0.60;99.90;;;;;;5112613;27;20289;-77
2021/11/18 06:57:54;;;;;;;20.33;11.33;;;0.70;99.90;;;;;;5113663;28;20281;-80
2021/11/18 07:00:22;;;;;;;16.67;10.47;;;0.60;99.90;;;;;;5114173;28;20244;-80
2021/11/18 07:02:49;;;;;;;13.90;9.90;;;0.70;99.90;;;;;;5111995;27;20274;-81
2021/11/18 07:05:16;;;;;;;15.20;10.00;;;0.90;99.90;;;;;;5109968;27;20292;-79
2021/11/18 07:07:43;;;;;;;14.83;11.60;;;0.90;99.90;;;;;;5114811;27;20285;-80
2021/11/18 07:10:12;;;;;;;18.70;12.13;;;1.00;99.90;;;;;;5114249;28;20288;-80
2021/11/18 07:12:40;;;;;;;17.00;11.43;;;1.00;99.90;;;;;;5114133;28;20637;-80
2021/11/18 07:15:09;;;;;;;18.70;11.67;;;1.00;99.90;;;;;;5114082;28;20305;-80
2021/11/18 07:17:36;;;;;;;18.57;11.07;;;1.10;99.90;;;;;;5113040;28;20293;-80
2021/11/18 07:20:06;;;;;;;18.00;11.83;;;1.20;99.90;;;;;;5112279;28;20261;-79
2021/11/18 07:22:34;;;;;;;16.63;11.53;;;1.30;99.90;;;;;;5113468;28;20575;-80
2021/11/18 07:25:02;;;;;;;14.97;10.80;;;1.30;99.90;;;;;;5113588;28;20210;-79
2021/11/18 07:27:29;;;;;;;15.47;10.70;;;1.30;99.90;;;;;;5114087;28;20228;-80
2021/11/18 07:29:58;;;;;;;16.67;12.13;;;1.50;99.90;;;;;;5113589;28;20214;-79
2021/11/18 07:32:25;;;;;;;16.83;11.30;;;1.50;99.90;;;;;;5111546;27;20656;-79
2021/11/18 07:34:52;;;;;;;17.17;12.70;;;1.60;99.90;;;;;;5113310;27;20290;-79
2021/11/18 07:37:19;;;;;;;17.83;12.37;;;1.70;99.90;;;;;;5113220;28;20295;-79
2021/11/18 07:39:46;;;;;;;16.30;12.60;;;1.80;99.90;;;;;;5118114;27;20284;-78
2021/11/18 07:42:13;;;;;;;17.63;12.60;;;1.90;99.90;;;;;;5115512;27;20286;-79
2021/11/18 07:44:39;;;;;;;17.67;12.40;;;1.90;99.90;;;;;;5122453;27;20496;-76
2021/11/18 07:47:08;;;;;;;15.83;11.70;;;2.10;99.90;;;;;;5134225;27;20286;-79
2021/11/18 07:49:35;;;;;;;16.77;12.00;;;2.20;99.90;;;;;;5130936;27;20698;-77
2021/11/18 07:52:02;;;;;;;21.70;17.73;;;2.20;99.90;;;;;;5112939;28;20261;-78
2021/11/18 07:54:29;;;;;;;21.73;17.10;;;2.30;99.90;;;;;;5113493;28;20287;-79
2021/11/18 07:56:56;;;;;;;28.23;21.33;;;2.40;99.90;;;;;;5112593;28;20626;-78
2021/11/18 07:59:23;;;;;;;21.07;16.93;;;2.40;99.90;;;;;;5112527;28;20306;-79
2021/11/18 08:01:50;;;;;;;22.20;15.40;;;2.40;99.90;;;;;;5114930;27;20287;-79
2021/11/18 08:04:18;;;;;;;18.60;13.57;;;2.40;99.90;;;;;;5111614;28;20695;-79
2021/11/18 08:06:46;;;;;;;19.87;13.87;;;2.50;99.90;;;;;;5112191;28;20232;-78
2021/11/18 08:09:13;;;;;;;18.23;13.70;;;2.60;99.90;;;;;;5107975;28;20299;-79
2021/11/18 08:11:44;;;;;;;20.07;12.93;;;2.70;99.90;;;;;;5112591;28;20232;-79
2021/11/18 08:14:13;;;;;;;17.80;12.77;;;2.80;99.90;;;;;;5112776;28;20303;-79
2021/11/18 08:16:40;;;;;;;16.93;13.10;;;2.80;99.90;;;;;;5112719;28;20680;-78
2021/11/18 08:19:07;;;;;;;18.67;12.83;;;2.80;99.90;;;;;;5112355;28;20254;-78
2021/11/18 08:21:37;;;;;;;18.67;12.73;;;2.80;99.90;;;;;;5112537;28;20295;-78
2021/11/18 08:24:05;;;;;;;14.10;11.97;;;2.80;99.90;;;;;;5112927;28;20304;-79
2021/11/18 08:26:33;;;;;;;20.17;14.87;;;3.10;99.90;;;;;;5112116;28;20668;-79
2021/11/18 08:29:00;;;;;;;18.53;14.60;;;3.20;99.90;;;;;;5112560;28;20243;-79
2021/11/18 08:31:28;;;;;;;21.20;16.30;;;3.40;99.90;;;;;;5112574;28;20288;-79
2021/11/18 08:33:55;;;;;;;19.63;15.40;;;3.50;99.90;;;;;;5112231;28;20282;-79
2021/11/18 08:36:22;;;;;;;21.90;14.90;;;3.60;99.90;;;;;;5111720;28;20278;-79
2021/11/18 08:38:51;;;;;;;19.27;15.63;;;3.80;99.90;;;;;;5112429;28;20293;-79
2021/11/18 08:41:19;;;;;;;17.07;13.17;;;4.00;99.90;;;;;;5112913;28;20285;-79
2021/11/18 08:43:53;;;;;;;15.73;12.43;;;4.10;99.90;;;;;;5112273;28;20300;-79
2021/11/18 08:46:21;;;;;;;19.57;12.03;;;4.20;99.90;;;;;;5112538;28;20201;-79
2021/11/18 08:48:49;;;;;;;20.63;13.83;;;4.50;99.90;;;;;;5112179;27;20285;-76
2021/11/18 08:51:18;;;;;;;21.80;13.50;;;4.70;99.90;;;;;;5112051;28;20719;-78
2021/11/18 08:53:48;;;;;;;19.80;14.10;;;5.10;99.90;;;;;;5112662;27;20240;-78
2021/11/18 08:56:17;;;;;;;15.53;13.17;;;5.10;99.90;;;;;;5112630;28;20231;-79
2021/11/18 08:58:47;;;;;;;15.83;13.17;;;5.30;99.90;;;;;;5112199;28;20290;-79
2021/11/18 09:01:21;;;;;;;17.70;12.63;;;5.60;99.90;;;;;;5111765;28;20690;-79
2021/11/18 09:03:48;;;;;;;13.93;11.47;;;5.70;99.90;;;;;;5111758;28;20253;-79
2021/11/18 09:06:17;;;;;;;18.30;10.60;;;6.00;99.90;;;;;;5112327;28;20299;-79
2021/11/18 09:08:44;;;;;;;14.70;11.73;;;6.10;99.90;;;;;;5111350;28;20281;-78
2021/11/18 09:11:14;;;;;;;16.97;12.17;;;6.30;99.90;;;;;;5112424;28;20288;-78
2021/11/18 09:13:44;;;;;;;17.70;12.90;;;6.60;99.90;;;;;;5112143;28;20590;-78
2021/11/18 09:16:12;;;;;;;18.27;13.23;;;6.70;99.90;;;;;;5112172;28;20293;-79
2021/11/18 09:18:40;;;;;;;17.17;13.37;;;6.70;99.90;;;;;;5112215;28;20237;-79
2021/11/18 09:21:10;;;;;;;22.10;16.10;;;6.60;99.90;;;;;;5112607;28;20296;-78
2021/11/18 09:23:41;;;;;;;24.80;18.07;;;6.70;99.90;;;;;;5112610;28;20327;-78
2021/11/18 09:26:09;;;;;;;29.60;17.53;;;6.80;99.90;;;;;;5112842;28;20289;-79
2021/11/18 09:28:36;;;;;;;21.10;15.77;;;6.80;99.90;;;;;;5095504;28;20293;-78
2021/11/18 09:31:08;;;;;;;21.40;14.00;;;6.80;99.90;;;;;;5091754;28;20301;-78
2021/11/18 09:33:35;;;;;;;15.97;11.97;;;6.80;99.90;;;;;;5099485;28;20324;-78
2021/11/18 09:36:05;;;;;;;14.03;10.77;;;6.80;99.90;;;;;;5111942;28;20639;-79
2021/11/18 09:38:34;;;;;;;13.43;11.07;;;6.90;99.90;;;;;;5111991;28;20201;-78
2021/11/18 09:41:11;;;;;;;17.80;13.10;;;7.10;99.90;;;;;;5111913;28;20292;-78
2021/11/18 09:44:14;;;;;;;18.67;14.70;;;7.20;99.90;;;;;;5132183;28;20291;-79
2021/11/18 09:47:14;;;;;;;15.23;11.20;;;7.20;99.90;;;;;;5093126;28;20293;-79
2021/11/18 09:50:00;;;;;;;14.10;11.87;;;7.10;99.90;;;;;;5115562;28;20190;-79
2021/11/18 09:52:35;;;;;;;15.37;11.90;;;7.20;99.90;;;;;;5114737;28;20225;-79
2021/11/18 09:55:08;;;;;;;18.30;14.30;;;7.50;99.90;;;;;;5114802;28;20233;-79
2021/11/18 09:57:49;;;;;;;19.87;13.43;;;7.80;99.90;;;;;;5106028;28;20233;-79
2021/11/18 10:00:26;;;;;;;24.23;14.57;;;7.80;99.90;;;;;;5114618;28;20288;-79
2021/11/18 10:03:15;;;;;;;22.67;14.47;;;8.00;99.90;;;;;;5115217;28;20308;-79
2021/11/18 10:05:55;;;;;;;21.33;14.60;;;8.10;99.90;;;;;;5115450;28;20269;-79
2021/11/18 10:08:28;;;;;;;16.33;12.93;;;8.50;99.90;;;;;;5114315;28;20195;-79
2021/11/18 10:11:06;;;;;;;16.93;12.43;;;8.40;99.90;;;;;;5097697;28;20293;-79
2021/11/18 10:13:49;;;;;;;21.97;11.93;;;8.50;99.90;;;;;;5114454;28;20734;-79
2021/11/18 10:16:19;;;;;;;17.30;11.20;;;8.60;99.90;;;;;;5097759;28;20271;-79
2021/11/18 10:18:49;;;;;;;18.67;11.20;;;8.60;99.90;;;;;;5116291;27;20729;-80
2021/11/18 10:21:25;;;;;;;17.10;10.03;;;8.60;99.90;;;;;;5128057;27;20216;-80
2021/11/18 10:23:58;;;;;;;14.73;8.70;;;8.80;99.90;;;;;;5115331;28;20313;-79
2021/11/18 10:26:28;;;;;;;15.43;9.43;;;8.90;99.90;;;;;;5115090;27;20293;-78
2021/11/18 10:29:10;;;;;;;15.17;9.13;;;8.90;99.90;;;;;;5114714;28;20225;-80
2021/11/18 10:31:50;;;;;;;18.57;9.30;;;9.00;99.90;;;;;;5124610;27;20232;-80
2021/11/18 10:34:24;;;;;;;16.20;9.77;;;9.40;99.90;;;;;;5135934;27;20227;-80
2021/11/18 10:37:07;;;;;;;14.23;9.33;;;9.70;99.90;;;;;;5135907;27;20299;-80
2021/11/18 10:39:49;;;;;;;18.70;10.27;;;9.50;99.90;;;;;;5135265;27;20287;-80
2021/11/18 10:42:28;;;;;;;15.13;9.57;;;9.70;99.90;;;;;;5118111;27;20284;-80
2021/11/18 10:44:57;;;;;;;15.30;9.43;;;9.80;99.90;;;;;;5114610;28;20252;-80
2021/11/18 10:47:28;;;;;;;15.67;9.27;;;10.10;99.90;;;;;;5114722;28;20769;-80
2021/11/18 10:50:06;;;;;;;19.00;9.50;;;10.40;99.90;;;;;;5114928;28;20629;-80
2021/11/18 10:52:36;;;;;;;15.90;9.63;;;10.70;99.90;;;;;;5114517;28;20564;-79
2021/11/18 10:55:13;;;;;;;18.43;9.53;;;11.10;99.90;;;;;;5114511;28;20250;-79
2021/11/18 10:58:00;;;;;;;19.40;9.57;;;11.10;99.90;;;;;;5126584;27;20299;-80
2021/11/18 11:00:31;;;;;;;17.47;9.70;;;11.10;99.90;;;;;;5112171;28;20276;-79
2021/11/18 11:02:58;;;;;;;16.27;8.60;;;11.30;99.90;;;;;;5114053;28;20280;-79
2021/11/18 11:05:32;;;;;;;15.40;8.73;;;11.80;99.90;;;;;;5113860;28;20267;-80
2021/11/18 11:08:00;;;;;;;16.37;8.67;;;11.90;99.90;;;;;;5122566;27;20201;-79
2021/11/18 11:10:32;;;;;;;18.83;8.80;;;11.90;99.90;;;;;;5114881;27;20622;-79
2021/11/18 11:13:04;;;;;;;17.70;11.00;;;12.30;99.90;;;;;;5119769;27;20225;-80
2021/11/18 11:16:10;;;;;;;21.63;14.03;;;12.00;99.90;;;;;;5135309;27;20252;-79
2021/11/18 11:18:48;;;;;;;15.07;8.40;;;11.70;99.90;;;;;;5127965;27;20257;-80
2021/11/18 11:21:48;;;;;;;17.70;9.00;;;11.60;99.90;;;;;;5113930;28;20284;-80
2021/11/18 11:24:41;;;;;;;14.73;8.67;;;11.80;99.90;;;;;;5113657;28;20217;-79
2021/11/18 11:27:43;;;;;;;17.03;8.47;;;12.40;99.90;;;;;;5113383;27;20251;-80
2021/11/18 11:30:20;;;;;;;18.53;8.63;;;12.00;99.90;;;;;;5113660;28;20238;-80
2021/11/18 11:32:51;;;;;;;15.67;8.40;;;12.10;99.90;;;;;;5113310;28;20284;-80
2021/11/18 11:35:31;;;;;;;17.03;8.30;;;12.10;99.90;;;;;;5113356;28;20360;-79
2021/11/18 11:38:34;;;;;;;12.80;8.07;;;12.30;99.90;;;;;;5120746;27;20229;-79
2021/11/18 11:41:25;;;;;;;18.53;8.53;;;12.50;99.90;;;;;;5099683;28;20276;-80
2021/11/18 11:43:56;;;;;;;16.67;8.60;;;12.60;99.90;;;;;;5113393;28;20205;-80
2021/11/18 11:46:43;;;;;;;17.90;9.27;;;12.50;99.90;;;;;;5112865;27;20599;-80
2021/11/18 11:49:30;;;;;;;17.40;7.67;;;12.40;99.90;;;;;;5113271;28;20288;-80
2021/11/18 11:52:44;;;;;;;15.37;7.90;;;12.50;99.90;;;;;;5107276;27;20225;-79
2021/11/18 11:55:44;;;;;;;27.40;16.83;;;12.60;99.90;;;;;;5106149;28;20281;-79
2021/11/18 11:58:16;;;;;;;19.50;7.53;;;12.60;99.90;;;;;;5111695;27;20384;-79
2021/11/18 12:00:56;;;;;;;21.23;8.00;;;12.70;99.90;;;;;;5120233;27;20248;-80
2021/11/18 12:03:34;;;;;;;19.97;7.53;;;12.70;99.90;;;;;;5113233;28;20241;-79
2021/11/18 12:06:12;;;;;;;20.37;8.00;;;12.50;99.90;;;;;;5110971;28;20256;-80
2021/11/18 12:08:45;;;;;;;16.50;8.70;;;12.40;99.90;;;;;;5112355;28;20197;-79
2021/11/18 12:11:18;;;;;;;18.37;8.20;;;12.40;99.90;;;;;;5112347;27;20281;-79
2021/11/18 12:14:00;;;;;;;18.63;6.60;;;12.60;99.90;;;;;;5113266;28;20273;-79
2021/11/18 12:16:32;;;;;;;16.23;6.50;;;12.40;99.90;;;;;;5113381;28;20268;-79
2021/11/18 12:19:03;;;;;;;17.23;8.00;;;12.40;99.90;;;;;;5111930;28;20261;-79
2021/11/18 12:21:32;;;;;;;21.50;10.77;;;12.20;99.90;;;;;;5112118;28;20228;-79
2021/11/18 12:24:06;;;;;;;15.67;6.27;;;12.20;99.90;;;;;;5112024;28;20197;-79
2021/11/18 12:26:49;;;;;;;19.20;6.50;;;12.00;99.90;;;;;;5092214;28;20272;-79
2021/11/18 12:29:28;;;;;;;17.10;6.33;;;12.20;99.90;;;;;;5107418;28;20237;-79
2021/11/18 12:32:05;;;;;;;16.53;5.73;;;12.50;99.90;;;;;;5112337;28;20286;-79
2021/11/18 12:34:58;;;;;;;14.20;6.00;;;12.50;99.90;;;;;;5123658;27;20567;-79
2021/11/18 12:37:30;;;;;;;20.43;6.80;;;12.40;99.90;;;;;;5095016;27;20229;-79
2021/11/18 12:40:17;;;;;;;18.33;5.57;;;12.40;99.90;;;;;;5112417;28;20688;-80
2021/11/18 12:43:00;;;;;;;13.80;4.60;;;12.50;99.90;;;;;;5112704;28;20289;-80
2021/11/18 12:45:52;;;;;;;17.47;5.20;;;12.50;99.90;;;;;;5125119;27;20303;-80
2021/11/18 12:48:24;;;;;;;15.53;5.10;;;12.90;99.90;;;;;;5105318;28;20281;-79
2021/11/18 12:51:14;;;;;;;17.33;5.00;;;13.30;99.90;;;;;;5111331;28;20375;-80
2021/11/18 12:53:45;;;;;;;12.20;4.80;;;13.20;99.90;;;;;;5122229;27;20668;-79